Time,TemperatureF,DewpointF,PressureIn,WindDirection,WindDirectionDegrees,WindSpeedMPH,WindSpeedGustMPH,Humidity,HourlyPrecipIn,Conditions,Clouds,dailyrainin,SoftwareType,DateUTC
2013-03-06 00:01:00,6.7,3.9,29.95,NW,310,0.0,0.0,88,0.00,,,0.00,LWC V2.00 B2112,2013-03-06 09:01:00,
2013-03-06 00:06:00,6.5,3.7,29.95,NW,310,0.0,0.0,88,0.00,,,0.00,LWC V2.00 B2112,2013-03-06 09:06:00,
2013-03-06 00:11:00,6.2,3.4,29.95,NW,310,0.0,0.0,88,0.00,,,0.00,LWC V2.00 B2112,2013-03-06 09:11:00,
2013-03-06 00:16:00,6.1,3.3,29.95,NW,309,0.0,0.0,88,0.00,,,0.00,LWC V2.00 B2112,2013-03-06 09:16:00,
2013-03-06 00:21:00,6.1,3.3,29.95,NW,310,0.0,0.0,88,0.00,,,0.00,LWC V2.00 B2112,2013-03-06 09:21:00,
2013-03-06 00:26:00,6.1,3.3,29.94,NW,309,0.0,0.0,88,0.00,,,0.00,LWC V2.00 B2112,2013-03-06 09:26:00,
2013-03-06 00:31:00,6.0,3.2,29.94,NW,309,0.0,0.0,88,0.00,,,0.00,LWC V2.00 B2112,2013-03-06 09:31:00,
2013-03-06 00:36:00,5.9,3.1,29.94,NW,310,0.0,0.0,88,0.00,,,0.00,LWC V2.00 B2112,2013-03-06 09:36:00,
2013-03-06 00:41:00,5.8,3.0,29.94,NW,310,0.0,0.0,88,0.00,,,0.00,LWC V2.00 B2112,2013-03-06 09:41:00,
2013-03-06 00:46:00,5.8,3.0,29.94,NW,310,0.0,0.0,88,0.00,,,0.00,LWC V2.00 B2112,2013-03-06 09:46:00,
2013-03-06 00:51:00,5.5,2.7,29.94,NW,309,0.0,0.0,88,0.00,,,0.00,LWC V2.00 B2112,2013-03-06 09:51:00,
2013-03-06 00:56:00,5.8,3.0,29.94,NW,310,0.0,0.0,88,0.00,,,0.00,LWC V2.00 B2112,2013-03-06 09:56:00,
2013-03-06 01:01:00,5.5,2.7,29.94,NW,309,0.0,0.0,88,0.00,,,0.00,LWC V2.00 B2112,2013-03-06 10:01:00,
2013-03-06 01:06:00,5.4,2.6,29.93,NW,309,0.0,0.0,88,0.00,,,0.00,LWC V2.00 B2112,2013-03-06 10:06:00,
2013-03-06 01:11:00,5.4,2.6,29.93,NW,310,0.0,0.0,88,0.00,,,0.00,LWC V2.00 B2112,2013-03-06 10:11:00,
2013-03-06 01:16:00,5.2,2.2,29.93,NW,310,0.0,0.0,87,0.00,,,0.00,LWC V2.00 B2112,2013-03-06 10:16:00,
2013-03-06 01:21:00,5.1,2.1,29.93,NW,310,0.0,0.0,87,0.00,,,0.00,LWC V2.00 B2112,2013-03-06 10:21:00,
2013-03-06 01:26:00,5.3,2.3,29.93,NW,309,0.0,0.0,87,0.00,,,0.00,LWC V2.00 B2112,2013-03-06 10:26:00,
2013-03-06 01:31:00,5.4,2.6,29.93,NW,310,0.0,0.0,88,0.00,,,0.00,LWC V2.00 B2112,2013-03-06 10:31:00,
2013-03-06 01:36:00,5.3,2.3,29.93,NW,309,0.0,0.0,87,0.00,,,0.00,LWC V2.00 B2112,2013-03-06 10:36:00,
2013-03-06 01:41:00,5.0,2.2,29.93,NW,309,0.0,0.0,88,0.00,,,0.00,LWC V2.00 B2112,2013-03-06 10:41:00,
2013-03-06 01:46:00,4.7,1.9,29.93,NW,310,0.0,0.0,88,0.00,,,0.00,LWC V2.00 B2112,2013-03-06 10:46:00,
2013-03-06 01:51:00,4.5,1.5,29.93,NW,310,0.0,0.0,87,0.00,,,0.00,LWC V2.00 B2112,2013-03-06 10:51:00,
2013-03-06 01:56:00,4.3,1.3,29.93,NW,310,0.0,0.0,87,0.00,,,0.00,LWC V2.00 B2112,2013-03-06 10:56:00,
2013-03-06 02:01:00,4.1,1.1,29.93,NW,309,0.0,0.0,87,0.00,,,0.00,LWC V2.00 B2112,2013-03-06 11:01:00,
2013-03-06 02:06:00,4.0,1.0,29.93,NW,310,0.0,0.0,87,0.00,,,0.00,LWC V2.00 B2112,2013-03-06 11:06:00,
2013-03-06 02:11:00,3.8,0.8,29.93,NW,310,0.0,0.0,87,0.00,,,0.00,LWC V2.00 B2112,2013-03-06 11:11:00,
2013-03-06 02:16:00,3.7,0.7,29.92,NW,309,0.0,0.0,87,0.00,,,0.00,LWC V2.00 B2112,2013-03-06 11:16:00,
2013-03-06 02:21:00,3.7,0.7,29.92,NW,310,0.0,0.0,87,0.00,,,0.00,LWC V2.00 B2112,2013-03-06 11:21:00,
2013-03-06 02:26:00,3.6,0.6,29.92,NW,310,0.0,0.0,87,0.00,,,0.00,LWC V2.00 B2112,2013-03-06 11:26:00,
2013-03-06 02:31:00,3.6,0.6,29.92,NW,310,0.0,0.0,87,0.00,,,0.00,LWC V2.00 B2112,2013-03-06 11:31:00,
2013-03-06 02:36:00,3.6,0.6,29.92,NW,309,0.0,0.0,87,0.00,,,0.00,LWC V2.00 B2112,2013-03-06 11:36:00,
2013-03-06 02:41:00,3.5,0.5,29.92,NW,310,0.0,0.0,87,0.00,,,0.00,LWC V2.00 B2112,2013-03-06 11:41:00,
2013-03-06 02:46:00,3.5,0.5,29.92,NW,309,0.0,0.0,87,0.00,,,0.00,LWC V2.00 B2112,2013-03-06 11:46:00,
2013-03-06 02:51:00,3.3,0.3,29.92,NW,309,0.0,0.0,87,0.00,,,0.00,LWC V2.00 B2112,2013-03-06 11:51:00,
2013-03-06 02:56:00,3.2,0.2,29.92,NW,310,0.0,0.0,87,0.00,,,0.00,LWC V2.00 B2112,2013-03-06 11:56:00,
2013-03-06 03:01:00,3.1,0.1,29.92,NW,310,0.0,0.0,87,0.00,,,0.00,LWC V2.00 B2112,2013-03-06 12:01:00,
2013-03-06 03:06:00,3.2,0.2,29.92,NW,310,0.0,0.0,87,0.00,,,0.00,LWC V2.00 B2112,2013-03-06 12:06:00,
2013-03-06 03:11:00,3.1,0.1,29.92,NW,309,0.0,0.0,87,0.00,,,0.00,LWC V2.00 B2112,2013-03-06 12:11:00,
2013-03-06 03:16:00,2.8,-0.2,29.92,NW,310,0.0,0.0,87,0.00,,,0.00,LWC V2.00 B2112,2013-03-06 12:16:00,
2013-03-06 03:21:00,2.7,-0.3,29.92,NW,309,0.0,0.0,87,0.00,,,0.00,LWC V2.00 B2112,2013-03-06 12:21:00,
2013-03-06 03:26:00,2.4,-0.6,29.92,NW,309,0.0,0.0,87,0.00,,,0.00,LWC V2.00 B2112,2013-03-06 12:26:00,
2013-03-06 03:31:00,2.5,-0.5,29.92,NW,309,0.0,0.0,87,0.00,,,0.00,LWC V2.00 B2112,2013-03-06 12:31:00,
2013-03-06 03:36:00,2.4,-0.6,29.91,NW,310,0.0,0.0,87,0.00,,,0.00,LWC V2.00 B2112,2013-03-06 12:36:00,
2013-03-06 03:41:00,2.3,-0.7,29.91,NW,310,0.0,0.0,87,0.00,,,0.00,LWC V2.00 B2112,2013-03-06 12:41:00,
2013-03-06 03:46:00,2.2,-0.8,29.91,NW,309,0.0,0.0,87,0.00,,,0.00,LWC V2.00 B2112,2013-03-06 12:46:00,
2013-03-06 03:51:00,2.0,-1.0,29.91,NW,310,0.0,0.0,87,0.00,,,0.00,LWC V2.00 B2112,2013-03-06 12:51:00,
2013-03-06 03:56:00,1.9,-1.1,29.91,NW,310,0.0,0.0,87,0.00,,,0.00,LWC V2.00 B2112,2013-03-06 12:56:00,
2013-03-06 04:01:00,1.9,-1.1,29.91,NW,309,0.0,0.0,87,0.00,,,0.00,LWC V2.00 B2112,2013-03-06 13:01:00,
2013-03-06 04:06:00,1.5,-1.5,29.91,NW,309,0.0,0.0,87,0.00,,,0.00,LWC V2.00 B2112,2013-03-06 13:06:00,
2013-03-06 04:11:00,1.3,-1.6,29.91,NW,310,0.0,0.0,87,0.00,,,0.00,LWC V2.00 B2112,2013-03-06 13:11:00,
2013-03-06 04:16:00,1.3,-1.6,29.91,NW,310,0.0,0.0,87,0.00,,,0.00,LWC V2.00 B2112,2013-03-06 13:16:00,
2013-03-06 04:21:00,1.3,-1.6,29.91,NW,309,0.0,0.0,87,0.00,,,0.00,LWC V2.00 B2112,2013-03-06 13:21:00,
2013-03-06 04:26:00,1.2,-1.7,29.90,NW,310,0.0,0.0,87,0.00,,,0.00,LWC V2.00 B2112,2013-03-06 13:26:00,
2013-03-06 04:31:00,1.1,-1.8,29.90,NW,309,0.0,0.0,87,0.00,,,0.00,LWC V2.00 B2112,2013-03-06 13:31:00,
2013-03-06 04:36:00,1.2,-1.7,29.90,NW,309,0.0,0.0,87,0.00,,,0.00,LWC V2.00 B2112,2013-03-06 13:36:00,
2013-03-06 04:41:00,1.1,-1.8,29.90,NW,310,0.0,0.0,87,0.00,,,0.00,LWC V2.00 B2112,2013-03-06 13:41:00,
2013-03-06 04:46:00,1.1,-1.8,29.90,NW,310,0.0,0.0,87,0.00,,,0.00,LWC V2.00 B2112,2013-03-06 13:46:00,
2013-03-06 04:51:00,1.1,-1.8,29.90,NW,310,0.0,0.0,87,0.00,,,0.00,LWC V2.00 B2112,2013-03-06 13:51:00,
2013-03-06 04:56:00,1.0,-1.9,29.91,NW,309,0.0,0.0,87,0.00,,,0.00,LWC V2.00 B2112,2013-03-06 13:56:00,
2013-03-06 05:01:00,0.9,-2.0,29.91,NW,310,0.0,0.0,87,0.00,,,0.00,LWC V2.00 B2112,2013-03-06 14:01:00,
2013-03-06 05:06:00,0.7,-2.2,29.91,NW,310,0.0,0.0,87,0.00,,,0.00,LWC V2.00 B2112,2013-03-06 14:06:00,
2013-03-06 05:11:00,0.5,-2.4,29.91,NW,309,0.0,0.0,87,0.00,,,0.00,LWC V2.00 B2112,2013-03-06 14:11:00,
2013-03-06 05:16:00,0.3,-2.6,29.91,NW,310,0.0,0.0,87,0.00,,,0.00,LWC V2.00 B2112,2013-03-06 14:16:00,
2013-03-06 05:21:00,0.4,-2.5,29.91,NW,310,0.0,0.0,87,0.00,,,0.00,LWC V2.00 B2112,2013-03-06 14:21:00,
2013-03-06 05:26:00,0.8,-2.1,29.91,NW,310,0.0,0.0,87,0.00,,,0.00,LWC V2.00 B2112,2013-03-06 14:26:00,
2013-03-06 05:31:00,0.8,-2.1,29.91,NW,309,0.0,0.0,87,0.00,,,0.00,LWC V2.00 B2112,2013-03-06 14:31:00,
2013-03-06 05:36:00,0.6,-2.3,29.91,NW,310,0.0,0.0,87,0.00,,,0.00,LWC V2.00 B2112,2013-03-06 14:36:00,
2013-03-06 05:41:00,0.6,-2.3,29.91,NW,310,0.0,0.0,87,0.00,,,0.00,LWC V2.00 B2112,2013-03-06 14:41:00,
2013-03-06 05:46:00,0.4,-2.5,29.91,NW,309,0.0,0.0,87,0.00,,,0.00,LWC V2.00 B2112,2013-03-06 14:46:00,
2013-03-06 05:51:00,0.2,-3.0,29.91,NW,310,0.0,0.0,86,0.00,,,0.00,LWC V2.00 B2112,2013-03-06 14:51:00,
2013-03-06 05:56:00,-0.1,-3.3,29.91,NW,310,0.0,0.0,86,0.00,,,0.00,LWC V2.00 B2112,2013-03-06 14:56:00,
2013-03-06 06:01:00,-0.3,-3.5,29.91,NW,310,0.0,0.0,86,0.00,,,0.00,LWC V2.00 B2112,2013-03-06 15:01:00,
2013-03-06 06:06:00,-0.5,-3.7,29.91,NW,309,0.0,0.0,86,0.00,,,0.00,LWC V2.00 B2112,2013-03-06 15:06:00,
2013-03-06 06:11:00,-0.7,-3.9,29.91,NW,310,0.0,0.0,86,0.00,,,0.00,LWC V2.00 B2112,2013-03-06 15:11:00,
2013-03-06 06:16:00,-0.9,-4.1,29.91,NW,310,0.0,0.0,86,0.00,,,0.00,LWC V2.00 B2112,2013-03-06 15:16:00,
2013-03-06 06:21:00,-1.2,-4.4,29.91,NW,309,0.0,0.0,86,0.00,,,0.00,LWC V2.00 B2112,2013-03-06 15:21:00,
2013-03-06 06:26:00,-1.4,-4.5,29.91,NW,310,0.0,0.0,86,0.00,,,0.00,LWC V2.00 B2112,2013-03-06 15:26:00,
2013-03-06 06:31:00,-1.6,-4.7,29.91,NW,310,0.0,0.0,86,0.00,,,0.00,LWC V2.00 B2112,2013-03-06 15:31:00,
2013-03-06 06:36:00,-1.8,-4.9,29.91,NW,310,0.0,0.0,86,0.00,,,0.00,LWC V2.00 B2112,2013-03-06 15:36:00,
2013-03-06 06:41:00,-1.9,-5.0,29.91,NW,309,0.0,0.0,86,0.00,,,0.00,LWC V2.00 B2112,2013-03-06 15:41:00,
2013-03-06 06:46:00,-2.1,-5.2,29.91,NW,310,0.0,0.0,86,0.00,,,0.00,LWC V2.00 B2112,2013-03-06 15:46:00,
2013-03-06 06:51:00,-2.1,-5.2,29.91,NW,309,0.0,0.0,86,0.00,,,0.00,LWC V2.00 B2112,2013-03-06 15:51:00,
2013-03-06 06:56:00,-2.2,-5.3,29.91,NW,309,0.0,0.0,86,0.00,,,0.00,LWC V2.00 B2112,2013-03-06 15:56:00,
2013-03-06 07:01:00,-2.2,-5.3,29.91,NW,310,0.0,0.0,86,0.00,,,0.00,LWC V2.00 B2112,2013-03-06 16:01:00,
2013-03-06 07:06:00,-2.3,-5.4,29.91,NW,310,0.0,0.0,86,0.00,,,0.00,LWC V2.00 B2112,2013-03-06 16:06:00,
2013-03-06 07:11:00,-2.4,-5.5,29.91,NW,310,0.0,0.0,86,0.00,,,0.00,LWC V2.00 B2112,2013-03-06 16:11:00,
2013-03-06 07:16:00,-2.4,-5.5,29.91,NW,309,0.0,0.0,86,0.00,,,0.00,LWC V2.00 B2112,2013-03-06 16:16:00,
2013-03-06 07:21:00,-2.4,-5.5,29.91,NW,310,0.0,0.0,86,0.00,,,0.00,LWC V2.00 B2112,2013-03-06 16:21:00,
2013-03-06 07:26:00,-2.2,-5.3,29.91,NW,309,0.0,0.0,86,0.00,,,0.00,LWC V2.00 B2112,2013-03-06 16:26:00,
2013-03-06 07:31:00,-2.1,-5.2,29.91,NW,309,0.0,0.0,86,0.00,,,0.00,LWC V2.00 B2112,2013-03-06 16:31:00,
2013-03-06 07:36:00,-1.9,-5.0,29.91,NW,309,0.0,0.0,86,0.00,,,0.00,LWC V2.00 B2112,2013-03-06 16:36:00,
2013-03-06 07:41:00,-1.9,-5.0,29.91,NW,310,0.0,0.0,86,0.00,,,0.00,LWC V2.00 B2112,2013-03-06 16:41:00,
2013-03-06 07:46:00,-2.0,-5.1,29.91,NW,310,0.0,0.0,86,0.00,,,0.00,LWC V2.00 B2112,2013-03-06 16:46:00,
2013-03-06 07:51:00,-2.1,-5.2,29.92,NW,309,0.0,0.0,86,0.00,,,0.00,LWC V2.00 B2112,2013-03-06 16:51:00,
2013-03-06 07:56:00,-2.1,-5.2,29.92,NW,310,0.0,0.0,86,0.00,,,0.00,LWC V2.00 B2112,2013-03-06 16:56:00,
2013-03-06 08:01:00,-2.1,-5.2,29.92,NW,310,0.0,0.0,86,0.00,,,0.00,LWC V2.00 B2112,2013-03-06 17:01:00,
2013-03-06 08:06:00,-1.9,-5.0,29.92,NW,309,0.0,0.0,86,0.00,,,0.00,LWC V2.00 B2112,2013-03-06 17:06:00,
2013-03-06 08:11:00,-1.8,-4.9,29.92,NW,310,0.0,0.0,86,0.00,,,0.00,LWC V2.00 B2112,2013-03-06 17:11:00,
2013-03-06 08:16:00,-1.8,-4.9,29.92,NW,310,0.0,0.0,86,0.00,,,0.00,LWC V2.00 B2112,2013-03-06 17:16:00,
2013-03-06 08:21:00,-1.8,-4.9,29.92,NW,310,0.0,0.0,86,0.00,,,0.00,LWC V2.00 B2112,2013-03-06 17:21:00,
2013-03-06 08:26:00,-2.0,-5.1,29.92,NW,309,0.0,0.0,86,0.00,,,0.00,LWC V2.00 B2112,2013-03-06 17:26:00,
2013-03-06 08:31:00,-2.1,-5.2,29.92,NW,310,0.0,0.0,86,0.00,,,0.00,LWC V2.00 B2112,2013-03-06 17:31:00,
2013-03-06 08:36:00,-2.0,-5.1,29.92,NW,310,0.0,0.0,86,0.00,,,0.00,LWC V2.00 B2112,2013-03-06 17:36:00,
2013-03-06 08:41:00,-1.6,-4.7,29.92,NW,309,0.0,0.0,86,0.00,,,0.00,LWC V2.00 B2112,2013-03-06 17:41:00,
2013-03-06 08:46:00,-1.0,-4.2,29.92,NW,309,0.0,0.0,86,0.00,,,0.00,LWC V2.00 B2112,2013-03-06 17:46:00,
2013-03-06 08:51:00,-0.7,-3.9,29.92,NW,310,0.0,0.0,86,0.00,,,0.00,LWC V2.00 B2112,2013-03-06 17:51:00,
2013-03-06 08:56:00,-0.3,-3.5,29.92,NW,310,0.0,0.0,86,0.00,,,0.00,LWC V2.00 B2112,2013-03-06 17:56:00,
2013-03-06 09:01:00,0.0,-3.2,29.92,NW,309,0.0,0.0,86,0.00,,,0.00,LWC V2.00 B2112,2013-03-06 18:01:00,
2013-03-06 09:06:00,0.2,-3.0,29.92,NW,310,0.0,0.0,86,0.00,,,0.00,LWC V2.00 B2112,2013-03-06 18:06:00,
2013-03-06 09:11:00,0.7,-2.5,29.92,NW,310,0.0,0.0,86,0.00,,,0.00,LWC V2.00 B2112,2013-03-06 18:11:00,
2013-03-06 09:16:00,1.4,-1.8,29.92,NW,309,0.0,0.0,86,0.00,,,0.00,LWC V2.00 B2112,2013-03-06 18:16:00,
2013-03-06 09:21:00,2.1,-1.1,29.92,NW,309,0.0,0.0,86,0.00,,,0.00,LWC V2.00 B2112,2013-03-06 18:21:00,
2013-03-06 09:26:00,2.8,-0.2,29.92,NW,310,0.0,0.0,87,0.00,,,0.00,LWC V2.00 B2112,2013-03-06 18:26:00,
2013-03-06 09:31:00,3.5,0.5,29.92,NW,310,0.0,1.0,87,0.00,,,0.00,LWC V2.00 B2112,2013-03-06 18:31:00,
2013-03-06 09:36:00,4.3,1.3,29.92,NW,310,0.0,0.0,87,0.00,,,0.00,LWC V2.00 B2112,2013-03-06 18:36:00,
2013-03-06 09:41:00,5.3,2.3,29.93,NW,310,0.0,0.0,87,0.00,,,0.00,LWC V2.00 B2112,2013-03-06 18:41:00,
2013-03-06 09:46:00,6.2,3.2,29.92,NW,310,0.0,0.0,87,0.00,,,0.00,LWC V2.00 B2112,2013-03-06 18:46:00,
2013-03-06 09:51:00,6.2,3.2,29.92,NW,309,0.0,0.0,87,0.00,,,0.00,LWC V2.00 B2112,2013-03-06 18:51:00,
2013-03-06 09:56:00,6.3,3.3,29.92,NW,309,0.0,0.0,87,0.00,,,0.00,LWC V2.00 B2112,2013-03-06 18:56:00,
2013-03-06 10:01:00,6.4,3.1,29.93,NW,310,0.0,0.0,86,0.00,,,0.00,LWC V2.00 B2112,2013-03-06 19:01:00,
2013-03-06 10:06:00,6.5,3.2,29.93,NW,310,0.0,0.0,86,0.00,,,0.00,LWC V2.00 B2112,2013-03-06 19:06:00,
2013-03-06 10:11:00,7.0,3.7,29.93,NW,309,0.0,0.0,86,0.00,,,0.00,LWC V2.00 B2112,2013-03-06 19:11:00,
2013-03-06 10:16:00,7.1,3.6,29.93,NW,310,0.0,0.0,85,0.00,,,0.00,LWC V2.00 B2112,2013-03-06 19:16:00,
2013-03-06 10:21:00,7.2,3.7,29.93,NW,310,1.0,1.0,85,0.00,,,0.00,LWC V2.00 B2112,2013-03-06 19:21:00,
2013-03-06 10:26:00,7.3,3.5,29.93,NW,309,0.0,0.0,84,0.00,,,0.00,LWC V2.00 B2112,2013-03-06 19:26:00,
2013-03-06 10:31:00,7.2,3.4,29.93,NW,309,1.0,1.0,84,0.00,,,0.00,LWC V2.00 B2112,2013-03-06 19:31:00,
2013-03-06 10:36:00,6.9,3.1,29.94,NW,310,0.0,0.0,84,0.00,,,0.00,LWC V2.00 B2112,2013-03-06 19:36:00,
2013-03-06 10:41:00,6.9,2.9,29.94,NW,310,0.0,1.0,83,0.00,,,0.00,LWC V2.00 B2112,2013-03-06 19:41:00,
2013-03-06 10:46:00,7.3,3.2,29.94,NW,309,0.0,1.0,83,0.00,,,0.00,LWC V2.00 B2112,2013-03-06 19:46:00,
2013-03-06 10:51:00,7.5,3.4,29.93,NW,310,0.0,1.0,83,0.00,,,0.00,LWC V2.00 B2112,2013-03-06 19:51:00,
2013-03-06 10:56:00,7.7,3.6,29.94,NW,310,0.0,1.0,83,0.00,,,0.00,LWC V2.00 B2112,2013-03-06 19:56:00,
2013-03-06 11:01:00,7.7,3.4,29.94,NW,309,0.0,0.0,82,0.00,,,0.00,LWC V2.00 B2112,2013-03-06 20:01:00,
2013-03-06 11:06:00,7.7,3.4,29.94,NW,309,1.0,1.0,82,0.00,,,0.00,LWC V2.00 B2112,2013-03-06 20:06:00,
2013-03-06 11:11:00,7.8,3.2,29.94,NW,310,0.0,0.0,81,0.00,,,0.00,LWC V2.00 B2112,2013-03-06 20:11:00,
2013-03-06 11:16:00,8.1,3.8,29.94,NW,310,0.0,0.0,82,0.00,,,0.00,LWC V2.00 B2112,2013-03-06 20:16:00,
2013-03-06 11:21:00,8.5,3.9,29.94,NW,309,0.0,0.0,81,0.00,,,0.00,LWC V2.00 B2112,2013-03-06 20:21:00,
2013-03-06 11:26:00,8.3,3.7,29.94,NW,310,0.0,0.0,81,0.00,,,0.00,LWC V2.00 B2112,2013-03-06 20:26:00,
2013-03-06 11:31:00,8.4,3.5,29.94,NW,310,0.0,0.0,80,0.00,,,0.00,LWC V2.00 B2112,2013-03-06 20:31:00,
2013-03-06 11:36:00,8.3,3.4,29.94,NW,309,0.0,0.0,80,0.00,,,0.00,LWC V2.00 B2112,2013-03-06 20:36:00,
2013-03-06 11:41:00,8.5,3.6,29.94,NW,309,0.0,1.0,80,0.00,,,0.00,LWC V2.00 B2112,2013-03-06 20:41:00,
2013-03-06 11:46:00,8.8,3.9,29.94,NW,310,0.0,0.0,80,0.00,,,0.00,LWC V2.00 B2112,2013-03-06 20:46:00,
2013-03-06 11:51:00,8.8,3.9,29.95,NW,310,0.0,0.0,80,0.00,,,0.00,LWC V2.00 B2112,2013-03-06 20:51:00,
2013-03-06 11:56:00,8.8,3.6,29.95,NW,309,0.0,0.0,79,0.00,,,0.00,LWC V2.00 B2112,2013-03-06 20:56:00,
2013-03-06 12:01:00,8.8,3.6,29.95,NW,310,0.0,0.0,79,0.00,,,0.00,LWC V2.00 B2112,2013-03-06 21:01:00,
2013-03-06 12:06:00,9.0,3.8,29.95,NW,310,0.0,0.0,79,0.00,,,0.00,LWC V2.00 B2112,2013-03-06 21:06:00,
2013-03-06 12:11:00,9.1,3.9,29.95,NW,309,0.0,0.0,79,0.00,,,0.00,LWC V2.00 B2112,2013-03-06 21:11:00,
2013-03-06 12:16:00,9.1,3.7,29.95,NW,309,0.0,0.0,78,0.00,,,0.00,LWC V2.00 B2112,2013-03-06 21:16:00,
2013-03-06 12:21:00,9.0,3.6,29.95,NW,310,0.0,0.0,78,0.00,,,0.00,LWC V2.00 B2112,2013-03-06 21:21:00,
2013-03-06 12:26:00,9.1,3.7,29.95,NW,310,0.0,0.0,78,0.00,,,0.00,LWC V2.00 B2112,2013-03-06 21:26:00,
2013-03-06 12:31:00,9.2,3.8,29.95,NW,309,0.0,0.0,78,0.00,,,0.00,LWC V2.00 B2112,2013-03-06 21:31:00,
2013-03-06 12:36:00,9.6,4.1,29.95,NW,310,0.0,0.0,78,0.00,,,0.00,LWC V2.00 B2112,2013-03-06 21:36:00,
2013-03-06 12:41:00,9.9,4.4,29.95,NW,310,0.0,0.0,78,0.00,,,0.00,LWC V2.00 B2112,2013-03-06 21:41:00,
2013-03-06 12:46:00,9.9,4.4,29.95,NW,309,0.0,0.0,78,0.00,,,0.00,LWC V2.00 B2112,2013-03-06 21:46:00,
2013-03-06 12:51:00,9.9,4.4,29.95,NW,309,0.0,0.0,78,0.00,,,0.00,LWC V2.00 B2112,2013-03-06 21:51:00,
2013-03-06 12:56:00,9.9,4.4,29.95,NW,310,0.0,0.0,78,0.00,,,0.00,LWC V2.00 B2112,2013-03-06 21:56:00,
2013-03-06 13:01:00,10.1,4.6,29.95,NW,310,0.0,0.0,78,0.00,,,0.00,LWC V2.00 B2112,2013-03-06 22:01:00,
2013-03-06 13:06:00,10.4,4.9,29.95,NW,309,0.0,2.0,78,0.00,,,0.00,LWC V2.00 B2112,2013-03-06 22:06:00,
2013-03-06 13:11:00,10.8,5.3,29.95,NW,310,0.0,0.0,78,0.00,,,0.00,LWC V2.00 B2112,2013-03-06 22:11:00,
2013-03-06 13:16:00,11.1,5.6,29.96,NW,310,0.0,1.0,78,0.00,,,0.00,LWC V2.00 B2112,2013-03-06 22:16:00,
2013-03-06 13:21:00,11.5,6.0,29.96,NW,309,0.0,0.0,78,0.00,,,0.00,LWC V2.00 B2112,2013-03-06 22:21:00,
2013-03-06 13:26:00,11.8,6.3,29.95,NW,309,0.0,0.0,78,0.00,,,0.00,LWC V2.00 B2112,2013-03-06 22:26:00,
2013-03-06 13:31:00,11.8,6.0,29.96,WNW,292,1.0,2.0,77,0.00,,,0.00,LWC V2.00 B2112,2013-03-06 22:31:00,
2013-03-06 13:36:00,11.6,5.8,29.95,WNW,292,0.0,1.0,77,0.00,,,0.00,LWC V2.00 B2112,2013-03-06 22:36:00,
2013-03-06 13:41:00,11.7,5.9,29.96,WNW,292,0.0,1.0,77,0.00,,,0.00,LWC V2.00 B2112,2013-03-06 22:41:00,
2013-03-06 13:46:00,11.9,6.1,29.96,WNW,291,0.0,0.0,77,0.00,,,0.00,LWC V2.00 B2112,2013-03-06 22:46:00,
2013-03-06 13:51:00,12.0,6.2,29.96,WNW,292,0.0,1.0,77,0.00,,,0.00,LWC V2.00 B2112,2013-03-06 22:51:00,
2013-03-06 13:56:00,12.1,6.0,29.96,WNW,293,0.0,0.0,76,0.00,,,0.00,LWC V2.00 B2112,2013-03-06 22:56:00,
2013-03-06 14:01:00,12.2,6.1,29.96,WNW,291,0.0,0.0,76,0.00,,,0.00,LWC V2.00 B2112,2013-03-06 23:01:00,
2013-03-06 14:06:00,12.5,6.4,29.96,WNW,292,0.0,2.0,76,0.00,,,0.00,LWC V2.00 B2112,2013-03-06 23:06:00,
2013-03-06 14:11:00,12.5,6.4,29.95,WSW,250,0.0,2.0,76,0.00,,,0.00,LWC V2.00 B2112,2013-03-06 23:11:00,
2013-03-06 14:16:00,12.7,6.6,29.95,WSW,250,0.0,0.0,76,0.00,,,0.00,LWC V2.00 B2112,2013-03-06 23:16:00,
2013-03-06 14:21:00,13.3,7.2,29.94,WSW,250,0.0,0.0,76,0.00,,,0.00,LWC V2.00 B2112,2013-03-06 23:21:00,
2013-03-06 14:26:00,14.3,8.1,29.94,North,354,0.0,0.0,76,0.00,,,0.00,LWC V2.00 B2112,2013-03-06 23:26:00,
2013-03-06 14:31:00,15.1,8.6,29.93,NNW,328,2.0,2.0,75,0.00,,,0.00,LWC V2.00 B2112,2013-03-06 23:31:00,
2013-03-06 14:36:00,15.5,8.7,29.94,NNW,336,0.0,0.0,74,0.00,,,0.00,LWC V2.00 B2112,2013-03-06 23:36:00,
2013-03-06 14:41:00,15.7,8.6,29.93,NNW,329,0.0,0.0,73,0.00,,,0.00,LWC V2.00 B2112,2013-03-06 23:41:00,
2013-03-06 14:46:00,15.5,8.1,29.93,NNW,329,0.0,0.0,72,0.00,,,0.00,LWC V2.00 B2112,2013-03-06 23:46:00,
2013-03-06 14:51:00,16.0,8.6,29.93,NNW,340,0.0,1.0,72,0.00,,,0.00,LWC V2.00 B2112,2013-03-06 23:51:00,
2013-03-06 14:56:00,16.6,9.2,29.93,NNW,328,1.0,2.0,72,0.00,,,0.00,LWC V2.00 B2112,2013-03-06 23:56:00,
2013-03-06 15:01:00,16.9,9.2,29.93,NNW,331,0.0,0.0,71,0.00,,,0.00,LWC V2.00 B2112,2013-03-07 00:01:00,
2013-03-06 15:06:00,17.3,9.5,29.93,North,0,0.0,0.0,71,0.00,,,0.00,LWC V2.00 B2112,2013-03-07 00:06:00,
2013-03-06 15:11:00,17.1,9.0,29.93,North,359,0.0,0.0,70,0.00,,,0.00,LWC V2.00 B2112,2013-03-07 00:11:00,
2013-03-06 15:16:00,16.7,8.6,29.93,North,359,0.0,0.0,70,0.00,,,0.00,LWC V2.00 B2112,2013-03-07 00:16:00,
2013-03-06 15:21:00,16.6,8.9,29.94,North,359,0.0,0.0,71,0.00,,,0.00,LWC V2.00 B2112,2013-03-07 00:21:00,
2013-03-06 15:26:00,16.7,9.0,29.94,North,359,0.0,0.0,71,0.00,,,0.00,LWC V2.00 B2112,2013-03-07 00:26:00,
2013-03-06 15:31:00,16.9,9.2,29.94,North,359,0.0,0.0,71,0.00,,,0.00,LWC V2.00 B2112,2013-03-07 00:31:00,
2013-03-06 15:36:00,17.9,9.8,29.94,NE,42,0.0,2.0,70,0.00,,,0.00,LWC V2.00 B2112,2013-03-07 00:36:00,
2013-03-06 15:41:00,18.4,10.0,29.94,ENE,78,0.0,0.0,69,0.00,,,0.00,LWC V2.00 B2112,2013-03-07 00:41:00,
2013-03-06 15:46:00,18.7,9.9,29.94,ENE,77,0.0,0.0,68,0.00,,,0.00,LWC V2.00 B2112,2013-03-07 00:46:00,
2013-03-06 15:51:00,18.2,9.1,29.94,ENE,78,0.0,0.0,67,0.00,,,0.00,LWC V2.00 B2112,2013-03-07 00:51:00,
2013-03-06 15:56:00,18.0,8.9,29.93,ENE,78,0.0,0.0,67,0.00,,,0.00,LWC V2.00 B2112,2013-03-07 00:56:00,
2013-03-06 16:01:00,17.3,8.6,29.94,ENE,77,0.0,0.0,68,0.00,,,0.00,LWC V2.00 B2112,2013-03-07 01:01:00,
2013-03-06 16:06:00,16.7,8.0,29.93,NW,308,1.0,1.0,68,0.00,,,0.00,LWC V2.00 B2112,2013-03-07 01:06:00,
2013-03-06 16:11:00,16.5,8.1,29.94,NW,309,0.0,0.0,69,0.00,,,0.00,LWC V2.00 B2112,2013-03-07 01:11:00,
2013-03-06 16:16:00,16.4,8.4,29.94,NW,309,0.0,0.0,70,0.00,,,0.00,LWC V2.00 B2112,2013-03-07 01:16:00,
2013-03-06 16:21:00,16.3,8.3,29.94,NW,308,0.0,0.0,70,0.00,,,0.00,LWC V2.00 B2112,2013-03-07 01:21:00,
2013-03-06 16:26:00,16.3,8.3,29.94,NW,309,0.0,1.0,70,0.00,,,0.00,LWC V2.00 B2112,2013-03-07 01:26:00,
2013-03-06 16:31:00,16.4,8.4,29.94,NW,309,0.0,0.0,70,0.00,,,0.00,LWC V2.00 B2112,2013-03-07 01:31:00,
2013-03-06 16:36:00,16.4,8.7,29.94,NW,309,0.0,0.0,71,0.00,,,0.00,LWC V2.00 B2112,2013-03-07 01:36:00,
2013-03-06 16:41:00,16.2,8.2,29.94,NW,308,0.0,0.0,70,0.00,,,0.00,LWC V2.00 B2112,2013-03-07 01:41:00,
2013-03-06 16:46:00,16.1,8.4,29.94,NW,309,0.0,0.0,71,0.00,,,0.00,LWC V2.00 B2112,2013-03-07 01:46:00,
2013-03-06 16:51:00,16.2,8.5,29.94,NW,308,0.0,0.0,71,0.00,,,0.00,LWC V2.00 B2112,2013-03-07 01:51:00,
2013-03-06 16:56:00,16.2,8.5,29.94,NW,309,0.0,0.0,71,0.00,,,0.00,LWC V2.00 B2112,2013-03-07 01:56:00,
2013-03-06 17:01:00,16.1,8.4,29.94,NW,309,0.0,0.0,71,0.00,,,0.00,LWC V2.00 B2112,2013-03-07 02:01:00,
2013-03-06 17:06:00,16.0,8.3,29.94,NW,309,1.0,1.0,71,0.00,,,0.00,LWC V2.00 B2112,2013-03-07 02:06:00,
2013-03-06 17:11:00,15.9,8.2,29.94,NW,309,0.0,0.0,71,0.00,,,0.00,LWC V2.00 B2112,2013-03-07 02:11:00,
2013-03-06 17:16:00,15.9,8.2,29.94,NW,308,0.0,0.0,71,0.00,,,0.00,LWC V2.00 B2112,2013-03-07 02:16:00,
2013-03-06 17:21:00,15.8,8.1,29.94,NW,309,0.0,0.0,71,0.00,,,0.00,LWC V2.00 B2112,2013-03-07 02:21:00,
2013-03-06 17:26:00,15.7,8.0,29.94,NW,309,0.0,0.0,71,0.00,,,0.00,LWC V2.00 B2112,2013-03-07 02:26:00,
2013-03-06 17:31:00,15.5,7.8,29.94,NW,309,0.0,0.0,71,0.00,,,0.00,LWC V2.00 B2112,2013-03-07 02:31:00,
2013-03-06 17:36:00,15.4,8.0,29.94,NW,308,0.0,0.0,72,0.00,,,0.00,LWC V2.00 B2112,2013-03-07 02:36:00,
2013-03-06 17:42:00,15.2,7.8,29.94,NW,309,0.0,0.0,72,0.00,,,0.00,LWC V2.00 B2112,2013-03-07 02:42:00,
2013-03-06 17:47:00,15.1,7.7,29.95,North,357,0.0,0.0,72,0.00,,,0.00,LWC V2.00 B2112,2013-03-07 02:47:00,
2013-03-06 17:52:00,15.0,7.6,29.95,North,357,0.0,0.0,72,0.00,,,0.00,LWC V2.00 B2112,2013-03-07 02:52:00,
2013-03-06 17:57:00,15.0,7.3,29.95,North,357,0.0,0.0,71,0.00,,,0.00,LWC V2.00 B2112,2013-03-07 02:57:00,
2013-03-06 18:02:00,14.8,7.4,29.95,North,357,0.0,0.0,72,0.00,,,0.00,LWC V2.00 B2112,2013-03-07 03:02:00,
2013-03-06 18:07:00,14.4,7.1,29.95,North,357,0.0,0.0,72,0.00,,,0.00,LWC V2.00 B2112,2013-03-07 03:07:00,
2013-03-06 18:12:00,14.1,6.8,29.95,North,357,0.0,0.0,72,0.00,,,0.00,LWC V2.00 B2112,2013-03-07 03:12:00,
2013-03-06 18:17:00,13.7,6.7,29.95,North,357,0.0,0.0,73,0.00,,,0.00,LWC V2.00 B2112,2013-03-07 03:17:00,
2013-03-06 18:22:00,13.2,6.5,29.95,North,357,0.0,0.0,74,0.00,,,0.00,LWC V2.00 B2112,2013-03-07 03:22:00,
2013-03-06 18:27:00,12.7,6.3,29.95,North,357,0.0,0.0,75,0.00,,,0.00,LWC V2.00 B2112,2013-03-07 03:27:00,
2013-03-06 18:32:00,12.3,6.2,29.95,North,357,0.0,0.0,76,0.00,,,0.00,LWC V2.00 B2112,2013-03-07 03:32:00,
2013-03-06 18:37:00,11.9,6.1,29.95,North,357,0.0,0.0,77,0.00,,,0.00,LWC V2.00 B2112,2013-03-07 03:37:00,
2013-03-06 18:42:00,11.5,5.7,29.95,North,357,0.0,0.0,77,0.00,,,0.00,LWC V2.00 B2112,2013-03-07 03:42:00,
2013-03-06 18:47:00,10.9,5.4,29.95,North,357,0.0,0.0,78,0.00,,,0.00,LWC V2.00 B2112,2013-03-07 03:47:00,
2013-03-06 18:52:00,10.5,5.3,29.95,North,357,0.0,0.0,79,0.00,,,0.00,LWC V2.00 B2112,2013-03-07 03:52:00,
2013-03-06 18:57:00,10.1,4.9,29.95,North,357,0.0,0.0,79,0.00,,,0.00,LWC V2.00 B2112,2013-03-07 03:57:00,
2013-03-06 19:02:00,9.8,4.9,29.95,North,357,0.0,0.0,80,0.00,,,0.00,LWC V2.00 B2112,2013-03-07 04:02:00,
2013-03-06 19:07:00,9.4,4.5,29.95,North,357,0.0,0.0,80,0.00,,,0.00,LWC V2.00 B2112,2013-03-07 04:07:00,
2013-03-06 19:12:00,8.9,4.0,29.95,North,357,0.0,0.0,80,0.00,,,0.00,LWC V2.00 B2112,2013-03-07 04:12:00,
2013-03-06 19:17:00,8.3,3.7,29.95,North,357,0.0,0.0,81,0.00,,,0.00,LWC V2.00 B2112,2013-03-07 04:17:00,
2013-03-06 19:22:00,7.9,3.6,29.95,North,357,0.0,0.0,82,0.00,,,0.00,LWC V2.00 B2112,2013-03-07 04:22:00,
2013-03-06 19:27:00,7.6,3.3,29.95,North,357,0.0,0.0,82,0.00,,,0.00,LWC V2.00 B2112,2013-03-07 04:27:00,
2013-03-06 19:32:00,7.2,3.1,29.94,North,357,0.0,0.0,83,0.00,,,0.00,LWC V2.00 B2112,2013-03-07 04:32:00,
2013-03-06 19:37:00,6.8,2.8,29.94,North,357,0.0,0.0,83,0.00,,,0.00,LWC V2.00 B2112,2013-03-07 04:37:00,
2013-03-06 19:42:00,6.5,2.5,29.94,North,357,0.0,0.0,83,0.00,,,0.00,LWC V2.00 B2112,2013-03-07 04:42:00,
2013-03-06 19:47:00,6.2,2.4,29.95,North,357,0.0,0.0,84,0.00,,,0.00,LWC V2.00 B2112,2013-03-07 04:47:00,
2013-03-06 19:52:00,5.9,2.1,29.94,North,357,0.0,0.0,84,0.00,,,0.00,LWC V2.00 B2112,2013-03-07 04:52:00,
2013-03-06 19:57:00,5.6,1.8,29.94,North,357,0.0,0.0,84,0.00,,,0.00,LWC V2.00 B2112,2013-03-07 04:57:00,
2013-03-06 20:00:00,5.4,1.6,29.94,North,357,0.0,0.0,84,0.00,,,0.00,LWC V2.00 B2112,2013-03-07 05:00:00,
2013-03-06 20:05:00,5.0,1.2,29.94,North,357,0.0,0.0,84,0.00,,,0.00,LWC V2.00 B2112,2013-03-07 05:05:00,
2013-03-06 20:10:00,4.6,0.9,29.94,North,357,0.0,0.0,84,0.00,,,0.00,LWC V2.00 B2112,2013-03-07 05:10:00,
2013-03-06 20:15:00,4.4,0.9,29.94,North,357,0.0,0.0,85,0.00,,,0.00,LWC V2.00 B2112,2013-03-07 05:15:00,
2013-03-06 20:20:00,4.3,0.8,29.94,North,357,0.0,0.0,85,0.00,,,0.00,LWC V2.00 B2112,2013-03-07 05:20:00,
2013-03-06 20:25:00,4.1,0.6,29.94,North,357,0.0,0.0,85,0.00,,,0.00,LWC V2.00 B2112,2013-03-07 05:25:00,
2013-03-06 20:30:00,3.9,0.4,29.94,North,357,0.0,0.0,85,0.00,,,0.00,LWC V2.00 B2112,2013-03-07 05:30:00,
2013-03-06 20:35:00,3.6,0.1,29.93,North,357,0.0,0.0,85,0.00,,,0.00,LWC V2.00 B2112,2013-03-07 05:35:00,
2013-03-06 20:40:00,3.3,-0.2,29.93,North,357,0.0,0.0,85,0.00,,,0.00,LWC V2.00 B2112,2013-03-07 05:40:00,
2013-03-06 20:45:00,3.2,-0.3,29.94,North,357,0.0,0.0,85,0.00,,,0.00,LWC V2.00 B2112,2013-03-07 05:45:00,
2013-03-06 20:50:00,3.0,-0.5,29.93,North,357,0.0,0.0,85,0.00,,,0.00,LWC V2.00 B2112,2013-03-07 05:50:00,
2013-03-06 20:55:00,2.8,-0.7,29.93,North,357,0.0,0.0,85,0.00,,,0.00,LWC V2.00 B2112,2013-03-07 05:55:00,
2013-03-06 21:00:00,2.8,-0.4,29.93,North,357,0.0,0.0,86,0.00,,,0.00,LWC V2.00 B2112,2013-03-07 06:00:00,
2013-03-06 21:05:00,3.2,0.0,29.92,North,357,0.0,0.0,86,0.00,,,0.00,LWC V2.00 B2112,2013-03-07 06:05:00,
2013-03-06 21:10:00,3.3,0.1,29.93,North,357,0.0,0.0,86,0.00,,,0.00,LWC V2.00 B2112,2013-03-07 06:10:00,
2013-03-06 21:15:00,3.1,-0.1,29.92,North,357,0.0,0.0,86,0.00,,,0.00,LWC V2.00 B2112,2013-03-07 06:15:00,
2013-03-06 21:20:00,2.7,-0.5,29.93,North,357,0.0,0.0,86,0.00,,,0.00,LWC V2.00 B2112,2013-03-07 06:20:00,
2013-03-06 21:25:00,2.4,-0.8,29.93,North,357,0.0,0.0,86,0.00,,,0.00,LWC V2.00 B2112,2013-03-07 06:25:00,
2013-03-06 21:30:00,2.1,-1.1,29.93,North,357,0.0,0.0,86,0.00,,,0.00,LWC V2.00 B2112,2013-03-07 06:30:00,
2013-03-06 21:35:00,2.0,-1.2,29.93,North,357,0.0,0.0,86,0.00,,,0.00,LWC V2.00 B2112,2013-03-07 06:35:00,
2013-03-06 21:40:00,1.9,-1.3,29.93,North,357,0.0,0.0,86,0.00,,,0.00,LWC V2.00 B2112,2013-03-07 06:40:00,
2013-03-06 21:45:00,1.9,-1.3,29.93,North,357,0.0,0.0,86,0.00,,,0.00,LWC V2.00 B2112,2013-03-07 06:45:00,
2013-03-06 21:50:00,1.7,-1.5,29.92,North,357,0.0,0.0,86,0.00,,,0.00,LWC V2.00 B2112,2013-03-07 06:50:00,
2013-03-06 21:55:00,1.4,-1.8,29.92,North,357,0.0,0.0,86,0.00,,,0.00,LWC V2.00 B2112,2013-03-07 06:55:00,
2013-03-06 21:56:00,1.4,-1.8,29.92,North,357,0.0,0.0,86,0.00,,,0.00,LWC V2.00 B2112,2013-03-07 06:56:00,
2013-03-06 22:01:00,1.3,-1.9,29.92,North,357,0.0,0.0,86,0.00,,,0.00,LWC V2.00 B2112,2013-03-07 07:01:00,
2013-03-06 22:06:00,1.1,-2.1,29.91,North,357,0.0,0.0,86,0.00,,,0.00,LWC V2.00 B2112,2013-03-07 07:06:00,
2013-03-06 22:11:00,0.9,-2.3,29.91,North,357,0.0,0.0,86,0.00,,,0.00,LWC V2.00 B2112,2013-03-07 07:11:00,
2013-03-06 22:16:00,0.8,-2.4,29.91,North,357,0.0,0.0,86,0.00,,,0.00,LWC V2.00 B2112,2013-03-07 07:16:00,
2013-03-06 22:21:00,0.9,-2.3,29.92,North,357,0.0,0.0,86,0.00,,,0.00,LWC V2.00 B2112,2013-03-07 07:21:00,
2013-03-06 22:26:00,0.9,-2.3,29.92,North,357,0.0,0.0,86,0.00,,,0.00,LWC V2.00 B2112,2013-03-07 07:26:00,
2013-03-06 22:31:00,0.9,-2.3,29.92,North,357,0.0,0.0,86,0.00,,,0.00,LWC V2.00 B2112,2013-03-07 07:31:00,
2013-03-06 22:36:00,0.9,-2.3,29.91,North,357,0.0,0.0,86,0.00,,,0.00,LWC V2.00 B2112,2013-03-07 07:36:00,
2013-03-06 22:41:00,0.9,-2.3,29.91,North,357,0.0,0.0,86,0.00,,,0.00,LWC V2.00 B2112,2013-03-07 07:41:00,
2013-03-06 22:46:00,1.0,-2.2,29.91,North,357,0.0,0.0,86,0.00,,,0.00,LWC V2.00 B2112,2013-03-07 07:46:00,
2013-03-06 22:51:00,1.0,-2.2,29.91,North,356,0.0,0.0,86,0.00,,,0.00,LWC V2.00 B2112,2013-03-07 07:51:00,
2013-03-06 22:56:00,0.9,-2.3,29.90,North,356,0.0,0.0,86,0.00,,,0.00,LWC V2.00 B2112,2013-03-07 07:56:00,
2013-03-06 23:01:00,0.8,-2.4,29.90,North,356,0.0,0.0,86,0.00,,,0.00,LWC V2.00 B2112,2013-03-07 08:01:00,
2013-03-06 23:06:00,0.9,-2.3,29.90,North,356,0.0,0.0,86,0.00,,,0.00,LWC V2.00 B2112,2013-03-07 08:06:00,
2013-03-06 23:11:00,0.8,-2.4,29.90,North,356,0.0,0.0,86,0.00,,,0.00,LWC V2.00 B2112,2013-03-07 08:11:00,
2013-03-06 23:16:00,0.6,-2.6,29.90,North,356,0.0,0.0,86,0.00,,,0.00,LWC V2.00 B2112,2013-03-07 08:16:00,
2013-03-06 23:21:00,0.6,-2.6,29.90,North,356,0.0,0.0,86,0.00,,,0.00,LWC V2.00 B2112,2013-03-07 08:21:00,
2013-03-06 23:26:00,0.5,-2.7,29.90,North,356,0.0,0.0,86,0.00,,,0.00,LWC V2.00 B2112,2013-03-07 08:26:00,
2013-03-06 23:31:00,0.4,-2.8,29.90,North,356,0.0,0.0,86,0.00,,,0.00,LWC V2.00 B2112,2013-03-07 08:31:00,
2013-03-06 23:36:00,0.6,-2.6,29.89,North,356,0.0,0.0,86,0.00,,,0.00,LWC V2.00 B2112,2013-03-07 08:36:00,
2013-03-06 23:41:00,0.8,-2.4,29.89,North,356,0.0,0.0,86,0.00,,,0.00,LWC V2.00 B2112,2013-03-07 08:41:00,
2013-03-06 23:46:00,0.6,-2.6,29.89,North,356,0.0,0.0,86,0.00,,,0.00,LWC V2.00 B2112,2013-03-07 08:46:00,
2013-03-06 23:51:00,0.6,-2.6,29.89,North,356,0.0,0.0,86,0.00,,,0.00,LWC V2.00 B2112,2013-03-07 08:51:00,
2013-03-06 23:56:00,0.9,-2.3,29.88,North,356,0.0,0.0,86,0.00,,,0.00,LWC V2.00 B2112,2013-03-07 08:56:00,